Terminal Aerodrome Forecast
Issued by NWS

Home | Current Version | Previous Version | Text Only | Print | Product List | Glossary On
Versions: 1 2 3 4 5 6 7 8 9 10 11 12 13
000
FTUS45 KBOI 311259 AAA
TAFTWF
TAF AMD
KTWF 311259Z 3113/0112 17013KT P6SM SCT200
     FM311500 15008KT P6SM SCT200
     FM010400 15012KT P6SM BKN150=

USA.gov is the U.S. government's official web portal to all federal, state and local government web resources and services.